sensor_id;sensor_type;location;lat;lon;timestamp;P1;durP1;ratioP1;P2;durP2;ratioP2
60722;SDS011;46574;52.818;6.516;2023-11-19T00:00:33;53.75;;;27.80;;
60722;SDS011;46574;52.818;6.516;2023-11-19T00:02:58;43.92;;;24.40;;
60722;SDS011;46574;52.818;6.516;2023-11-19T00:05:24;41.85;;;24.38;;
60722;SDS011;46574;52.818;6.516;2023-11-19T00:07:50;46.60;;;25.70;;
60722;SDS011;46574;52.818;6.516;2023-11-19T00:10:15;57.90;;;27.50;;
60722;SDS011;46574;52.818;6.516;2023-11-19T00:12:45;46.00;;;26.10;;
60722;SDS011;46574;52.818;6.516;2023-11-19T00:15:15;44.05;;;25.45;;
60722;SDS011;46574;52.818;6.516;2023-11-19T00:17:44;52.70;;;26.02;;
60722;SDS011;46574;52.818;6.516;2023-11-19T00:20:11;50.17;;;25.13;;
60722;SDS011;46574;52.818;6.516;2023-11-19T00:22:38;49.50;;;25.17;;
60722;SDS011;46574;52.818;6.516;2023-11-19T00:25:03;42.92;;;22.70;;
60722;SDS011;46574;52.818;6.516;2023-11-19T00:27:30;41.92;;;22.80;;
60722;SDS011;46574;52.818;6.516;2023-11-19T00:29:56;47.35;;;22.63;;
60722;SDS011;46574;52.818;6.516;2023-11-19T00:32:22;49.83;;;23.20;;
60722;SDS011;46574;52.818;6.516;2023-11-19T00:34:48;40.33;;;21.48;;
60722;SDS011;46574;52.818;6.516;2023-11-19T00:37:14;43.05;;;21.52;;
60722;SDS011;46574;52.818;6.516;2023-11-19T00:42:11;40.20;;;20.50;;
60722;SDS011;46574;52.818;6.516;2023-11-19T00:44:36;38.88;;;18.48;;
60722;SDS011;46574;52.818;6.516;2023-11-19T00:47:02;36.35;;;18.48;;
60722;SDS011;46574;52.818;6.516;2023-11-19T00:49:28;30.23;;;16.95;;
60722;SDS011;46574;52.818;6.516;2023-11-19T00:51:54;32.10;;;15.02;;
60722;SDS011;46574;52.818;6.516;2023-11-19T00:54:20;39.88;;;17.35;;
60722;SDS011;46574;52.818;6.516;2023-11-19T00:56:46;32.85;;;16.13;;
60722;SDS011;46574;52.818;6.516;2023-11-19T00:59:11;32.28;;;15.95;;
60722;SDS011;46574;52.818;6.516;2023-11-19T01:01:40;32.55;;;13.75;;
60722;SDS011;46574;52.818;6.516;2023-11-19T01:04:05;29.15;;;13.23;;
60722;SDS011;46574;52.818;6.516;2023-11-19T01:06:31;29.75;;;12.55;;
60722;SDS011;46574;52.818;6.516;2023-11-19T01:08:58;36.13;;;13.57;;
60722;SDS011;46574;52.818;6.516;2023-11-19T01:11:24;28.58;;;12.10;;
60722;SDS011;46574;52.818;6.516;2023-11-19T01:13:50;30.63;;;11.73;;
60722;SDS011;46574;52.818;6.516;2023-11-19T01:16:16;26.67;;;11.50;;
60722;SDS011;46574;52.818;6.516;2023-11-19T01:18:42;27.80;;;10.40;;
60722;SDS011;46574;52.818;6.516;2023-11-19T01:21:08;27.60;;;10.23;;
60722;SDS011;46574;52.818;6.516;2023-11-19T01:23:34;27.38;;;10.32;;
60722;SDS011;46574;52.818;6.516;2023-11-19T01:26:00;29.30;;;10.15;;
60722;SDS011;46574;52.818;6.516;2023-11-19T01:28:26;24.05;;;9.32;;
60722;SDS011;46574;52.818;6.516;2023-11-19T01:30:51;23.02;;;8.52;;
60722;SDS011;46574;52.818;6.516;2023-11-19T01:33:17;22.83;;;8.57;;
60722;SDS011;46574;52.818;6.516;2023-11-19T01:35:49;27.63;;;9.13;;
60722;SDS011;46574;52.818;6.516;2023-11-19T01:38:15;27.77;;;9.10;;
60722;SDS011;46574;52.818;6.516;2023-11-19T01:40:41;27.75;;;8.65;;
60722;SDS011;46574;52.818;6.516;2023-11-19T01:43:07;23.35;;;7.43;;
60722;SDS011;46574;52.818;6.516;2023-11-19T01:45:36;24.67;;;7.60;;
60722;SDS011;46574;52.818;6.516;2023-11-19T01:48:04;23.53;;;6.97;;
60722;SDS011;46574;52.818;6.516;2023-11-19T01:50:30;24.00;;;7.47;;
60722;SDS011;46574;52.818;6.516;2023-11-19T01:52:57;25.92;;;7.05;;
60722;SDS011;46574;52.818;6.516;2023-11-19T01:55:24;21.15;;;7.05;;
60722;SDS011;46574;52.818;6.516;2023-11-19T01:57:51;22.60;;;7.50;;
60722;SDS011;46574;52.818;6.516;2023-11-19T02:00:19;26.17;;;7.37;;
60722;SDS011;46574;52.818;6.516;2023-11-19T02:02:45;19.58;;;6.78;;
60722;SDS011;46574;52.818;6.516;2023-11-19T02:05:13;22.17;;;7.45;;
60722;SDS011;46574;52.818;6.516;2023-11-19T02:07:39;26.88;;;7.35;;
60722;SDS011;46574;52.818;6.516;2023-11-19T02:10:05;24.38;;;7.60;;
60722;SDS011;46574;52.818;6.516;2023-11-19T02:12:37;22.33;;;6.82;;
60722;SDS011;46574;52.818;6.516;2023-11-19T02:15:07;23.88;;;6.68;;
60722;SDS011;46574;52.818;6.516;2023-11-19T02:17:34;24.48;;;6.18;;
60722;SDS011;46574;52.818;6.516;2023-11-19T02:19:59;26.38;;;6.97;;
60722;SDS011;46574;52.818;6.516;2023-11-19T02:22:25;21.45;;;6.00;;
60722;SDS011;46574;52.818;6.516;2023-11-19T02:24:54;24.65;;;6.43;;
60722;SDS011;46574;52.818;6.516;2023-11-19T02:27:26;20.88;;;6.38;;
60722;SDS011;46574;52.818;6.516;2023-11-19T02:29:54;19.50;;;6.32;;
60722;SDS011;46574;52.818;6.516;2023-11-19T02:32:19;26.98;;;6.90;;
60722;SDS011;46574;52.818;6.516;2023-11-19T02:34:45;22.42;;;6.93;;
60722;SDS011;46574;52.818;6.516;2023-11-19T02:37:11;24.48;;;6.78;;
60722;SDS011;46574;52.818;6.516;2023-11-19T02:39:37;23.25;;;6.07;;
60722;SDS011;46574;52.818;6.516;2023-11-19T02:42:03;17.95;;;5.78;;
60722;SDS011;46574;52.818;6.516;2023-11-19T02:44:28;20.65;;;5.50;;
60722;SDS011;46574;52.818;6.516;2023-11-19T02:46:55;23.70;;;6.05;;
60722;SDS011;46574;52.818;6.516;2023-11-19T02:51:50;24.83;;;5.25;;
60722;SDS011;46574;52.818;6.516;2023-11-19T02:54:15;24.15;;;6.22;;
60722;SDS011;46574;52.818;6.516;2023-11-19T02:56:44;20.20;;;5.57;;
60722;SDS011;46574;52.818;6.516;2023-11-19T02:59:13;26.10;;;6.13;;
60722;SDS011;46574;52.818;6.516;2023-11-19T03:01:52;25.33;;;5.32;;
60722;SDS011;46574;52.818;6.516;2023-11-19T03:04:18;25.10;;;5.20;;
60722;SDS011;46574;52.818;6.516;2023-11-19T03:06:45;20.52;;;5.85;;
60722;SDS011;46574;52.818;6.516;2023-11-19T03:09:11;22.10;;;5.07;;
60722;SDS011;46574;52.818;6.516;2023-11-19T03:11:37;22.30;;;6.03;;
60722;SDS011;46574;52.818;6.516;2023-11-19T03:14:03;25.13;;;6.00;;
60722;SDS011;46574;52.818;6.516;2023-11-19T03:16:29;19.92;;;4.90;;
60722;SDS011;46574;52.818;6.516;2023-11-19T03:18:55;23.83;;;6.03;;
60722;SDS011;46574;52.818;6.516;2023-11-19T03:21:30;28.58;;;5.93;;
60722;SDS011;46574;52.818;6.516;2023-11-19T03:23:57;25.10;;;5.47;;
60722;SDS011;46574;52.818;6.516;2023-11-19T03:26:25;24.17;;;6.07;;
60722;SDS011;46574;52.818;6.516;2023-11-19T03:28:52;25.75;;;6.85;;
60722;SDS011;46574;52.818;6.516;2023-11-19T03:31:18;24.42;;;5.60;;
60722;SDS011;46574;52.818;6.516;2023-11-19T03:33:44;23.60;;;5.45;;
60722;SDS011;46574;52.818;6.516;2023-11-19T03:36:10;22.40;;;5.35;;
60722;SDS011;46574;52.818;6.516;2023-11-19T03:38:36;25.70;;;5.90;;
60722;SDS011;46574;52.818;6.516;2023-11-19T03:41:09;26.02;;;6.25;;
60722;SDS011;46574;52.818;6.516;2023-11-19T03:43:47;25.02;;;5.18;;
60722;SDS011;46574;52.818;6.516;2023-11-19T03:46:19;23.95;;;6.00;;
60722;SDS011;46574;52.818;6.516;2023-11-19T03:48:46;30.27;;;6.22;;
60722;SDS011;46574;52.818;6.516;2023-11-19T03:51:13;27.88;;;6.75;;
60722;SDS011;46574;52.818;6.516;2023-11-19T03:53:45;27.55;;;6.70;;
60722;SDS011;46574;52.818;6.516;2023-11-19T03:56:11;28.80;;;6.80;;
60722;SDS011;46574;52.818;6.516;2023-11-19T03:58:37;26.52;;;6.40;;
60722;SDS011;46574;52.818;6.516;2023-11-19T04:01:04;29.05;;;6.53;;
60722;SDS011;46574;52.818;6.516;2023-11-19T04:03:30;24.02;;;6.28;;
60722;SDS011;46574;52.818;6.516;2023-11-19T04:05:56;27.48;;;6.63;;
60722;SDS011;46574;52.818;6.516;2023-11-19T04:08:22;25.63;;;5.97;;
60722;SDS011;46574;52.818;6.516;2023-11-19T04:10:48;27.05;;;6.63;;
60722;SDS011;46574;52.818;6.516;2023-11-19T04:13:14;29.17;;;7.30;;
60722;SDS011;46574;52.818;6.516;2023-11-19T04:15:39;32.60;;;7.20;;
60722;SDS011;46574;52.818;6.516;2023-11-19T04:18:05;27.25;;;6.22;;
60722;SDS011;46574;52.818;6.516;2023-11-19T04:20:31;32.33;;;6.65;;
60722;SDS011;46574;52.818;6.516;2023-11-19T04:22:56;28.27;;;6.35;;
60722;SDS011;46574;52.818;6.516;2023-11-19T04:25:23;31.23;;;6.20;;
60722;SDS011;46574;52.818;6.516;2023-11-19T04:27:51;24.52;;;7.20;;
60722;SDS011;46574;52.818;6.516;2023-11-19T04:30:17;26.88;;;6.55;;
60722;SDS011;46574;52.818;6.516;2023-11-19T04:32:43;26.02;;;6.03;;
60722;SDS011;46574;52.818;6.516;2023-11-19T04:35:09;26.73;;;6.30;;
60722;SDS011;46574;52.818;6.516;2023-11-19T04:37:35;28.33;;;6.00;;
60722;SDS011;46574;52.818;6.516;2023-11-19T04:40:02;28.67;;;6.63;;
60722;SDS011;46574;52.818;6.516;2023-11-19T04:42:28;30.98;;;6.90;;
60722;SDS011;46574;52.818;6.516;2023-11-19T04:44:54;33.72;;;8.13;;
60722;SDS011;46574;52.818;6.516;2023-11-19T04:47:20;37.08;;;7.03;;
60722;SDS011;46574;52.818;6.516;2023-11-19T04:49:46;30.75;;;6.57;;
60722;SDS011;46574;52.818;6.516;2023-11-19T04:52:12;26.77;;;6.40;;
60722;SDS011;46574;52.818;6.516;2023-11-19T04:54:41;32.20;;;6.80;;
60722;SDS011;46574;52.818;6.516;2023-11-19T04:57:08;34.22;;;8.05;;
60722;SDS011;46574;52.818;6.516;2023-11-19T04:59:36;27.90;;;6.38;;
60722;SDS011;46574;52.818;6.516;2023-11-19T05:02:02;27.30;;;6.25;;
60722;SDS011;46574;52.818;6.516;2023-11-19T05:04:29;31.58;;;7.30;;
60722;SDS011;46574;52.818;6.516;2023-11-19T05:06:55;28.80;;;6.85;;
60722;SDS011;46574;52.818;6.516;2023-11-19T05:09:20;31.33;;;6.75;;
60722;SDS011;46574;52.818;6.516;2023-11-19T05:11:46;29.45;;;6.95;;
60722;SDS011;46574;52.818;6.516;2023-11-19T05:14:12;27.58;;;7.03;;
60722;SDS011;46574;52.818;6.516;2023-11-19T05:16:40;33.25;;;6.43;;
60722;SDS011;46574;52.818;6.516;2023-11-19T05:19:06;29.88;;;6.80;;
60722;SDS011;46574;52.818;6.516;2023-11-19T05:21:32;37.42;;;7.50;;
60722;SDS011;46574;52.818;6.516;2023-11-19T05:23:58;29.15;;;6.35;;
60722;SDS011;46574;52.818;6.516;2023-11-19T05:26:24;28.55;;;7.43;;
60722;SDS011;46574;52.818;6.516;2023-11-19T05:28:50;26.63;;;6.85;;
60722;SDS011;46574;52.818;6.516;2023-11-19T05:31:16;26.77;;;7.25;;
60722;SDS011;46574;52.818;6.516;2023-11-19T05:33:42;26.77;;;5.80;;
60722;SDS011;46574;52.818;6.516;2023-11-19T05:36:10;34.28;;;6.97;;
60722;SDS011;46574;52.818;6.516;2023-11-19T05:38:37;35.20;;;7.47;;
60722;SDS011;46574;52.818;6.516;2023-11-19T05:41:04;32.03;;;7.38;;
60722;SDS011;46574;52.818;6.516;2023-11-19T05:43:30;29.50;;;6.22;;
60722;SDS011;46574;52.818;6.516;2023-11-19T05:45:56;31.83;;;7.55;;
60722;SDS011;46574;52.818;6.516;2023-11-19T05:48:22;28.45;;;6.40;;
60722;SDS011;46574;52.818;6.516;2023-11-19T05:50:48;32.17;;;7.05;;
60722;SDS011;46574;52.818;6.516;2023-11-19T05:53:15;32.47;;;7.13;;
60722;SDS011;46574;52.818;6.516;2023-11-19T05:55:41;33.60;;;7.45;;
60722;SDS011;46574;52.818;6.516;2023-11-19T05:58:23;31.33;;;6.60;;
60722;SDS011;46574;52.818;6.516;2023-11-19T06:00:50;27.20;;;6.72;;
60722;SDS011;46574;52.818;6.516;2023-11-19T06:03:17;24.58;;;6.30;;
60722;SDS011;46574;52.818;6.516;2023-11-19T06:05:46;26.85;;;6.18;;
60722;SDS011;46574;52.818;6.516;2023-11-19T06:08:12;22.67;;;5.25;;
60722;SDS011;46574;52.818;6.516;2023-11-19T06:10:38;31.70;;;7.38;;
60722;SDS011;46574;52.818;6.516;2023-11-19T06:13:05;29.33;;;6.15;;
60722;SDS011;46574;52.818;6.516;2023-11-19T06:15:31;32.53;;;6.15;;
60722;SDS011;46574;52.818;6.516;2023-11-19T06:17:58;34.72;;;7.25;;
60722;SDS011;46574;52.818;6.516;2023-11-19T06:20:28;25.13;;;6.18;;
60722;SDS011;46574;52.818;6.516;2023-11-19T06:22:57;34.05;;;7.55;;
60722;SDS011;46574;52.818;6.516;2023-11-19T06:25:23;26.13;;;6.18;;
60722;SDS011;46574;52.818;6.516;2023-11-19T06:27:49;32.75;;;7.15;;
60722;SDS011;46574;52.818;6.516;2023-11-19T06:30:15;28.25;;;6.80;;
60722;SDS011;46574;52.818;6.516;2023-11-19T06:32:41;26.30;;;6.75;;
60722;SDS011;46574;52.818;6.516;2023-11-19T06:35:07;27.35;;;6.55;;
60722;SDS011;46574;52.818;6.516;2023-11-19T06:37:34;30.27;;;6.38;;
60722;SDS011;46574;52.818;6.516;2023-11-19T06:40:00;31.67;;;6.22;;
60722;SDS011;46574;52.818;6.516;2023-11-19T06:42:26;25.08;;;5.90;;
60722;SDS011;46574;52.818;6.516;2023-11-19T06:44:52;27.10;;;6.15;;
60722;SDS011;46574;52.818;6.516;2023-11-19T06:47:17;32.65;;;6.75;;
60722;SDS011;46574;52.818;6.516;2023-11-19T06:49:43;28.83;;;6.68;;
60722;SDS011;46574;52.818;6.516;2023-11-19T06:52:09;27.92;;;6.22;;
60722;SDS011;46574;52.818;6.516;2023-11-19T06:54:35;31.02;;;6.95;;
60722;SDS011;46574;52.818;6.516;2023-11-19T06:57:01;26.30;;;6.32;;
60722;SDS011;46574;52.818;6.516;2023-11-19T06:59:28;28.85;;;6.15;;
60722;SDS011;46574;52.818;6.516;2023-11-19T07:01:54;29.08;;;6.88;;
60722;SDS011;46574;52.818;6.516;2023-11-19T07:04:20;37.78;;;7.63;;
60722;SDS011;46574;52.818;6.516;2023-11-19T07:06:46;28.33;;;6.15;;
60722;SDS011;46574;52.818;6.516;2023-11-19T07:09:13;34.53;;;7.72;;
60722;SDS011;46574;52.818;6.516;2023-11-19T07:11:39;38.78;;;7.13;;
60722;SDS011;46574;52.818;6.516;2023-11-19T07:14:05;27.25;;;6.75;;
60722;SDS011;46574;52.818;6.516;2023-11-19T07:16:32;28.80;;;6.95;;
60722;SDS011;46574;52.818;6.516;2023-11-19T07:19:02;30.70;;;7.07;;
60722;SDS011;46574;52.818;6.516;2023-11-19T07:21:28;30.05;;;6.47;;
60722;SDS011;46574;52.818;6.516;2023-11-19T07:23:54;31.23;;;7.35;;
60722;SDS011;46574;52.818;6.516;2023-11-19T07:26:21;26.20;;;7.15;;
60722;SDS011;46574;52.818;6.516;2023-11-19T07:28:47;26.77;;;6.57;;
60722;SDS011;46574;52.818;6.516;2023-11-19T07:31:13;30.02;;;7.32;;
60722;SDS011;46574;52.818;6.516;2023-11-19T07:33:39;30.23;;;6.00;;
60722;SDS011;46574;52.818;6.516;2023-11-19T07:36:09;37.45;;;6.45;;
60722;SDS011;46574;52.818;6.516;2023-11-19T07:38:35;31.30;;;7.13;;
60722;SDS011;46574;52.818;6.516;2023-11-19T07:41:00;30.33;;;5.95;;
60722;SDS011;46574;52.818;6.516;2023-11-19T07:43:26;31.02;;;6.63;;
60722;SDS011;46574;52.818;6.516;2023-11-19T07:45:52;31.60;;;7.05;;
60722;SDS011;46574;52.818;6.516;2023-11-19T07:48:18;28.23;;;6.05;;
60722;SDS011;46574;52.818;6.516;2023-11-19T07:50:48;28.60;;;6.53;;
60722;SDS011;46574;52.818;6.516;2023-11-19T07:53:15;30.80;;;7.10;;
60722;SDS011;46574;52.818;6.516;2023-11-19T07:55:41;29.13;;;6.70;;
60722;SDS011;46574;52.818;6.516;2023-11-19T07:58:07;31.17;;;6.20;;
60722;SDS011;46574;52.818;6.516;2023-11-19T08:00:32;30.27;;;6.50;;
60722;SDS011;46574;52.818;6.516;2023-11-19T08:02:58;31.90;;;7.53;;
60722;SDS011;46574;52.818;6.516;2023-11-19T08:05:24;25.63;;;6.03;;
60722;SDS011;46574;52.818;6.516;2023-11-19T08:07:50;32.30;;;6.13;;
60722;SDS011;46574;52.818;6.516;2023-11-19T08:10:17;25.67;;;6.10;;
60722;SDS011;46574;52.818;6.516;2023-11-19T08:12:44;29.00;;;6.15;;
60722;SDS011;46574;52.818;6.516;2023-11-19T08:15:09;28.67;;;6.32;;
60722;SDS011;46574;52.818;6.516;2023-11-19T08:17:35;28.83;;;6.68;;
60722;SDS011;46574;52.818;6.516;2023-11-19T08:20:02;29.65;;;6.53;;
60722;SDS011;46574;52.818;6.516;2023-11-19T08:22:29;29.03;;;7.17;;
60722;SDS011;46574;52.818;6.516;2023-11-19T08:24:55;27.35;;;5.80;;
60722;SDS011;46574;52.818;6.516;2023-11-19T08:27:21;26.83;;;6.45;;
60722;SDS011;46574;52.818;6.516;2023-11-19T08:29:53;29.50;;;6.38;;
60722;SDS011;46574;52.818;6.516;2023-11-19T08:32:22;31.15;;;6.50;;
60722;SDS011;46574;52.818;6.516;2023-11-19T08:34:48;27.05;;;5.88;;
60722;SDS011;46574;52.818;6.516;2023-11-19T08:37:14;23.08;;;5.88;;
60722;SDS011;46574;52.818;6.516;2023-11-19T08:39:40;26.63;;;6.38;;
60722;SDS011;46574;52.818;6.516;2023-11-19T08:42:07;35.58;;;6.75;;
60722;SDS011;46574;52.818;6.516;2023-11-19T08:44:32;26.35;;;6.25;;
60722;SDS011;46574;52.818;6.516;2023-11-19T08:46:58;33.10;;;6.60;;
60722;SDS011;46574;52.818;6.516;2023-11-19T08:49:24;29.55;;;6.18;;
60722;SDS011;46574;52.818;6.516;2023-11-19T08:51:49;36.50;;;7.20;;
60722;SDS011;46574;52.818;6.516;2023-11-19T08:54:15;26.30;;;6.20;;
60722;SDS011;46574;52.818;6.516;2023-11-19T08:56:41;33.22;;;6.90;;
60722;SDS011;46574;52.818;6.516;2023-11-19T08:59:06;28.65;;;6.55;;
60722;SDS011;46574;52.818;6.516;2023-11-19T09:01:32;30.98;;;6.57;;
60722;SDS011;46574;52.818;6.516;2023-11-19T09:03:58;29.15;;;6.43;;
60722;SDS011;46574;52.818;6.516;2023-11-19T09:06:23;26.50;;;6.78;;
60722;SDS011;46574;52.818;6.516;2023-11-19T09:08:49;29.77;;;6.63;;
60722;SDS011;46574;52.818;6.516;2023-11-19T09:11:15;31.27;;;7.03;;
60722;SDS011;46574;52.818;6.516;2023-11-19T09:13:41;33.53;;;6.60;;
60722;SDS011;46574;52.818;6.516;2023-11-19T09:16:07;30.17;;;6.78;;
60722;SDS011;46574;52.818;6.516;2023-11-19T09:18:34;31.27;;;6.28;;
60722;SDS011;46574;52.818;6.516;2023-11-19T09:21:00;30.95;;;6.57;;
60722;SDS011;46574;52.818;6.516;2023-11-19T09:23:25;32.63;;;7.55;;
60722;SDS011;46574;52.818;6.516;2023-11-19T09:25:52;29.80;;;5.93;;
60722;SDS011;46574;52.818;6.516;2023-11-19T09:28:18;30.50;;;6.40;;
60722;SDS011;46574;52.818;6.516;2023-11-19T09:30:44;24.63;;;5.75;;
60722;SDS011;46574;52.818;6.516;2023-11-19T09:33:10;29.52;;;7.40;;
60722;SDS011;46574;52.818;6.516;2023-11-19T09:35:35;32.63;;;6.53;;
60722;SDS011;46574;52.818;6.516;2023-11-19T09:38:01;23.65;;;6.30;;
60722;SDS011;46574;52.818;6.516;2023-11-19T09:40:27;23.15;;;6.25;;
60722;SDS011;46574;52.818;6.516;2023-11-19T09:42:53;27.95;;;5.65;;
60722;SDS011;46574;52.818;6.516;2023-11-19T09:45:20;23.60;;;5.57;;
60722;SDS011;46574;52.818;6.516;2023-11-19T09:47:46;30.10;;;6.25;;
60722;SDS011;46574;52.818;6.516;2023-11-19T09:50:14;33.60;;;7.00;;
60722;SDS011;46574;52.818;6.516;2023-11-19T09:52:45;33.33;;;8.65;;
60722;SDS011;46574;52.818;6.516;2023-11-19T09:55:12;28.00;;;6.65;;
60722;SDS011;46574;52.818;6.516;2023-11-19T09:57:38;29.77;;;7.57;;
60722;SDS011;46574;52.818;6.516;2023-11-19T10:00:05;32.45;;;7.28;;
60722;SDS011;46574;52.818;6.516;2023-11-19T10:02:33;29.35;;;7.18;;
60722;SDS011;46574;52.818;6.516;2023-11-19T10:05:02;22.85;;;5.32;;
60722;SDS011;46574;52.818;6.516;2023-11-19T10:07:31;24.65;;;5.07;;
60722;SDS011;46574;52.818;6.516;2023-11-19T10:09:58;22.50;;;5.30;;
60722;SDS011;46574;52.818;6.516;2023-11-19T10:12:26;28.00;;;5.90;;
60722;SDS011;46574;52.818;6.516;2023-11-19T10:14:53;23.30;;;5.97;;
60722;SDS011;46574;52.818;6.516;2023-11-19T10:17:21;25.00;;;6.03;;
60722;SDS011;46574;52.818;6.516;2023-11-19T10:19:46;26.67;;;6.53;;
60722;SDS011;46574;52.818;6.516;2023-11-19T10:22:12;27.80;;;6.95;;
60722;SDS011;46574;52.818;6.516;2023-11-19T10:24:41;24.05;;;5.88;;
60722;SDS011;46574;52.818;6.516;2023-11-19T10:27:07;27.55;;;6.00;;
60722;SDS011;46574;52.818;6.516;2023-11-19T10:29:36;26.83;;;5.68;;
60722;SDS011;46574;52.818;6.516;2023-11-19T10:32:02;29.77;;;6.38;;
60722;SDS011;46574;52.818;6.516;2023-11-19T10:34:29;23.60;;;6.15;;
60722;SDS011;46574;52.818;6.516;2023-11-19T10:36:55;26.65;;;5.32;;
60722;SDS011;46574;52.818;6.516;2023-11-19T10:39:21;17.55;;;4.85;;
60722;SDS011;46574;52.818;6.516;2023-11-19T10:41:48;18.35;;;5.32;;
60722;SDS011;46574;52.818;6.516;2023-11-19T10:44:29;24.45;;;5.30;;
60722;SDS011;46574;52.818;6.516;2023-11-19T10:47:01;24.73;;;5.70;;
60722;SDS011;46574;52.818;6.516;2023-11-19T10:49:26;28.00;;;6.15;;
60722;SDS011;46574;52.818;6.516;2023-11-19T10:51:52;27.77;;;5.88;;
60722;SDS011;46574;52.818;6.516;2023-11-19T10:54:21;29.08;;;5.85;;
60722;SDS011;46574;52.818;6.516;2023-11-19T10:56:53;25.80;;;6.53;;
60722;SDS011;46574;52.818;6.516;2023-11-19T10:59:22;28.35;;;6.53;;
60722;SDS011;46574;52.818;6.516;2023-11-19T11:01:48;24.55;;;5.45;;
60722;SDS011;46574;52.818;6.516;2023-11-19T11:04:24;31.60;;;6.93;;
60722;SDS011;46574;52.818;6.516;2023-11-19T11:06:51;24.10;;;6.38;;
60722;SDS011;46574;52.818;6.516;2023-11-19T11:09:19;31.80;;;6.35;;
60722;SDS011;46574;52.818;6.516;2023-11-19T11:11:46;29.73;;;6.35;;
60722;SDS011;46574;52.818;6.516;2023-11-19T11:14:13;32.95;;;6.60;;
60722;SDS011;46574;52.818;6.516;2023-11-19T11:16:43;31.15;;;6.47;;
60722;SDS011;46574;52.818;6.516;2023-11-19T11:19:11;28.70;;;6.90;;
60722;SDS011;46574;52.818;6.516;2023-11-19T11:21:38;31.65;;;7.22;;
60722;SDS011;46574;52.818;6.516;2023-11-19T11:26:53;30.40;;;5.82;;
60722;SDS011;46574;52.818;6.516;2023-11-19T11:32:39;28.15;;;6.93;;
60722;SDS011;46574;52.818;6.516;2023-11-19T11:35:26;29.25;;;6.32;;
60722;SDS011;46574;52.818;6.516;2023-11-19T11:38:21;36.08;;;6.38;;
60722;SDS011;46574;52.818;6.516;2023-11-19T11:43:46;24.52;;;6.18;;
60722;SDS011;46574;52.818;6.516;2023-11-19T11:49:15;28.55;;;6.13;;
60722;SDS011;46574;52.818;6.516;2023-11-19T11:51:58;29.40;;;6.20;;
60722;SDS011;46574;52.818;6.516;2023-11-19T11:54:28;31.58;;;6.80;;
60722;SDS011;46574;52.818;6.516;2023-11-19T11:57:11;30.52;;;7.43;;
60722;SDS011;46574;52.818;6.516;2023-11-19T12:02:14;28.77;;;6.10;;
60722;SDS011;46574;52.818;6.516;2023-11-19T12:04:41;28.88;;;6.22;;
60722;SDS011;46574;52.818;6.516;2023-11-19T12:09:47;24.63;;;5.60;;
60722;SDS011;46574;52.818;6.516;2023-11-19T12:12:17;37.78;;;7.57;;
60722;SDS011;46574;52.818;6.516;2023-11-19T12:17:42;32.50;;;6.85;;
60722;SDS011;46574;52.818;6.516;2023-11-19T12:20:14;28.67;;;6.50;;
60722;SDS011;46574;52.818;6.516;2023-11-19T12:22:42;36.38;;;7.18;;
60722;SDS011;46574;52.818;6.516;2023-11-19T12:25:09;31.70;;;6.43;;
60722;SDS011;46574;52.818;6.516;2023-11-19T12:27:37;26.83;;;6.05;;
60722;SDS011;46574;52.818;6.516;2023-11-19T12:30:06;30.10;;;6.80;;
60722;SDS011;46574;52.818;6.516;2023-11-19T12:32:38;27.67;;;6.15;;
60722;SDS011;46574;52.818;6.516;2023-11-19T12:35:08;30.13;;;6.60;;
60722;SDS011;46574;52.818;6.516;2023-11-19T12:37:41;33.65;;;6.50;;
60722;SDS011;46574;52.818;6.516;2023-11-19T12:40:11;33.40;;;6.75;;
60722;SDS011;46574;52.818;6.516;2023-11-19T12:42:44;24.17;;;5.82;;
60722;SDS011;46574;52.818;6.516;2023-11-19T12:45:14;26.90;;;5.65;;
60722;SDS011;46574;52.818;6.516;2023-11-19T12:47:41;27.23;;;4.82;;
60722;SDS011;46574;52.818;6.516;2023-11-19T12:50:08;33.80;;;5.53;;
60722;SDS011;46574;52.818;6.516;2023-11-19T12:52:38;23.73;;;5.45;;
60722;SDS011;46574;52.818;6.516;2023-11-19T12:55:04;28.02;;;5.32;;
60722;SDS011;46574;52.818;6.516;2023-11-19T12:57:38;30.15;;;5.50;;
60722;SDS011;46574;52.818;6.516;2023-11-19T13:00:17;24.83;;;6.50;;
60722;SDS011;46574;52.818;6.516;2023-11-19T13:05:30;25.27;;;5.40;;
60722;SDS011;46574;52.818;6.516;2023-11-19T13:08:02;28.45;;;5.28;;
60722;SDS011;46574;52.818;6.516;2023-11-19T13:10:30;23.15;;;6.50;;
60722;SDS011;46574;52.818;6.516;2023-11-19T13:13:15;22.35;;;5.85;;
60722;SDS011;46574;52.818;6.516;2023-11-19T13:15:41;24.35;;;5.50;;
60722;SDS011;46574;52.818;6.516;2023-11-19T13:18:06;20.77;;;5.10;;
60722;SDS011;46574;52.818;6.516;2023-11-19T13:20:33;26.40;;;5.78;;
60722;SDS011;46574;52.818;6.516;2023-11-19T13:25:26;22.52;;;5.40;;
60722;SDS011;46574;52.818;6.516;2023-11-19T13:27:52;26.35;;;5.75;;
60722;SDS011;46574;52.818;6.516;2023-11-19T13:30:19;24.67;;;5.85;;
60722;SDS011;46574;52.818;6.516;2023-11-19T13:32:45;22.35;;;5.57;;
60722;SDS011;46574;52.818;6.516;2023-11-19T13:35:14;26.73;;;5.35;;
60722;SDS011;46574;52.818;6.516;2023-11-19T13:37:40;25.30;;;5.10;;
60722;SDS011;46574;52.818;6.516;2023-11-19T13:40:06;22.98;;;6.18;;
60722;SDS011;46574;52.818;6.516;2023-11-19T13:42:35;22.23;;;6.35;;
60722;SDS011;46574;52.818;6.516;2023-11-19T13:45:03;24.70;;;6.10;;
60722;SDS011;46574;52.818;6.516;2023-11-19T13:47:29;20.58;;;4.35;;
60722;SDS011;46574;52.818;6.516;2023-11-19T13:49:55;20.95;;;4.68;;
60722;SDS011;46574;52.818;6.516;2023-11-19T13:52:20;21.95;;;4.97;;
60722;SDS011;46574;52.818;6.516;2023-11-19T13:54:46;24.77;;;4.72;;
60722;SDS011;46574;52.818;6.516;2023-11-19T13:57:11;22.92;;;4.88;;
60722;SDS011;46574;52.818;6.516;2023-11-19T13:59:40;26.17;;;5.18;;
60722;SDS011;46574;52.818;6.516;2023-11-19T14:02:07;26.45;;;5.32;;
60722;SDS011;46574;52.818;6.516;2023-11-19T14:04:33;23.27;;;4.65;;
60722;SDS011;46574;52.818;6.516;2023-11-19T14:06:59;21.50;;;5.05;;
60722;SDS011;46574;52.818;6.516;2023-11-19T14:09:24;20.75;;;4.43;;
60722;SDS011;46574;52.818;6.516;2023-11-19T14:11:50;25.60;;;5.78;;
60722;SDS011;46574;52.818;6.516;2023-11-19T14:14:16;27.90;;;6.03;;
60722;SDS011;46574;52.818;6.516;2023-11-19T14:16:42;33.63;;;5.60;;
60722;SDS011;46574;52.818;6.516;2023-11-19T14:19:07;24.38;;;5.07;;
60722;SDS011;46574;52.818;6.516;2023-11-19T14:21:33;22.40;;;4.80;;
60722;SDS011;46574;52.818;6.516;2023-11-19T14:23:59;27.58;;;5.35;;
60722;SDS011;46574;52.818;6.516;2023-11-19T14:26:24;25.08;;;5.75;;
60722;SDS011;46574;52.818;6.516;2023-11-19T14:28:50;26.08;;;5.53;;
60722;SDS011;46574;52.818;6.516;2023-11-19T14:31:16;21.45;;;5.05;;
60722;SDS011;46574;52.818;6.516;2023-11-19T14:33:41;25.67;;;5.78;;
60722;SDS011;46574;52.818;6.516;2023-11-19T14:36:07;26.15;;;4.85;;
60722;SDS011;46574;52.818;6.516;2023-11-19T14:38:33;25.25;;;5.63;;
60722;SDS011;46574;52.818;6.516;2023-11-19T14:40:58;18.80;;;4.88;;
60722;SDS011;46574;52.818;6.516;2023-11-19T14:43:25;21.85;;;5.22;;
60722;SDS011;46574;52.818;6.516;2023-11-19T14:45:51;19.33;;;4.32;;
60722;SDS011;46574;52.818;6.516;2023-11-19T14:48:17;23.65;;;5.15;;
60722;SDS011;46574;52.818;6.516;2023-11-19T14:50:43;23.30;;;5.20;;
60722;SDS011;46574;52.818;6.516;2023-11-19T14:53:10;23.73;;;5.32;;
60722;SDS011;46574;52.818;6.516;2023-11-19T14:55:35;21.85;;;5.03;;
60722;SDS011;46574;52.818;6.516;2023-11-19T14:58:01;26.25;;;5.10;;
60722;SDS011;46574;52.818;6.516;2023-11-19T15:00:27;23.17;;;5.03;;
60722;SDS011;46574;52.818;6.516;2023-11-19T15:02:53;26.98;;;5.85;;